sensor_id;sensor_type;location;lat;lon;timestamp;P1;P2;P0
28026;PMS5003;15344;52.342;-1.290;2023-09-07T00:00:02;15;14;
28026;PMS5003;15344;52.342;-1.290;2023-09-07T00:02:27;19;16;
28026;PMS5003;15344;52.342;-1.290;2023-09-07T00:04:53;16;16;
28026;PMS5003;15344;52.342;-1.290;2023-09-07T00:07:19;16;15;
28026;PMS5003;15344;52.342;-1.290;2023-09-07T00:09:45;16;13;
28026;PMS5003;15344;52.342;-1.290;2023-09-07T00:12:10;16;15;
28026;PMS5003;15344;52.342;-1.290;2023-09-07T00:14:35;21;20;
28026;PMS5003;15344;52.342;-1.290;2023-09-07T00:17:01;24;21;
28026;PMS5003;15344;52.342;-1.290;2023-09-07T00:19:27;20;17;
28026;PMS5003;15344;52.342;-1.290;2023-09-07T00:21:52;16;16;
28026;PMS5003;15344;52.342;-1.290;2023-09-07T00:24:18;16;15;
28026;PMS5003;15344;52.342;-1.290;2023-09-07T00:26:44;18;14;
28026;PMS5003;15344;52.342;-1.290;2023-09-07T00:29:09;16;14;
28026;PMS5003;15344;52.342;-1.290;2023-09-07T00:31:35;15;14;
28026;PMS5003;15344;52.342;-1.290;2023-09-07T00:34:00;14;14;
28026;PMS5003;15344;52.342;-1.290;2023-09-07T00:36:26;12;12;
28026;PMS5003;15344;52.342;-1.290;2023-09-07T00:38:52;15;13;
28026;PMS5003;15344;52.342;-1.290;2023-09-07T00:41:17;21;18;
28026;PMS5003;15344;52.342;-1.290;2023-09-07T00:43:42;16;15;
28026;PMS5003;15344;52.342;-1.290;2023-09-07T00:46:08;16;15;
28026;PMS5003;15344;52.342;-1.290;2023-09-07T00:48:34;20;18;
28026;PMS5003;15344;52.342;-1.290;2023-09-07T00:50:59;18;17;
28026;PMS5003;15344;52.342;-1.290;2023-09-07T00:53:25;14;14;
28026;PMS5003;15344;52.342;-1.290;2023-09-07T00:55:50;16;13;
28026;PMS5003;15344;52.342;-1.290;2023-09-07T00:58:16;17;16;
28026;PMS5003;15344;52.342;-1.290;2023-09-07T01:00:42;16;15;
28026;PMS5003;15344;52.342;-1.290;2023-09-07T01:03:07;14;14;
28026;PMS5003;15344;52.342;-1.290;2023-09-07T01:05:34;18;18;
28026;PMS5003;15344;52.342;-1.290;2023-09-07T01:07:59;21;18;
28026;PMS5003;15344;52.342;-1.290;2023-09-07T01:10:23;22;20;
28026;PMS5003;15344;52.342;-1.290;2023-09-07T01:12:49;20;18;
28026;PMS5003;15344;52.342;-1.290;2023-09-07T01:15:15;16;16;
28026;PMS5003;15344;52.342;-1.290;2023-09-07T01:17:41;25;22;
28026;PMS5003;15344;52.342;-1.290;2023-09-07T01:20:07;22;21;
28026;PMS5003;15344;52.342;-1.290;2023-09-07T01:22:32;23;22;
28026;PMS5003;15344;52.342;-1.290;2023-09-07T01:24:58;20;19;
28026;PMS5003;15344;52.342;-1.290;2023-09-07T01:27:23;23;20;
28026;PMS5003;15344;52.342;-1.290;2023-09-07T01:29:49;25;22;
28026;PMS5003;15344;52.342;-1.290;2023-09-07T01:32:15;23;21;
28026;PMS5003;15344;52.342;-1.290;2023-09-07T01:34:41;24;24;
28026;PMS5003;15344;52.342;-1.290;2023-09-07T01:37:06;26;24;
28026;PMS5003;15344;52.342;-1.290;2023-09-07T01:39:32;24;21;
28026;PMS5003;15344;52.342;-1.290;2023-09-07T01:41:57;26;22;
28026;PMS5003;15344;52.342;-1.290;2023-09-07T01:44:23;23;20;
28026;PMS5003;15344;52.342;-1.290;2023-09-07T01:46:48;26;25;
28026;PMS5003;15344;52.342;-1.290;2023-09-07T01:49:13;26;25;
28026;PMS5003;15344;52.342;-1.290;2023-09-07T01:51:39;30;26;
28026;PMS5003;15344;52.342;-1.290;2023-09-07T01:54:04;24;24;
28026;PMS5003;15344;52.342;-1.290;2023-09-07T01:56:29;24;24;
28026;PMS5003;15344;52.342;-1.290;2023-09-07T01:58:55;20;19;
28026;PMS5003;15344;52.342;-1.290;2023-09-07T02:01:21;20;17;
28026;PMS5003;15344;52.342;-1.290;2023-09-07T02:03:46;23;20;
28026;PMS5003;15344;52.342;-1.290;2023-09-07T02:06:12;27;25;
28026;PMS5003;15344;52.342;-1.290;2023-09-07T02:08:37;19;19;
28026;PMS5003;15344;52.342;-1.290;2023-09-07T02:11:05;22;21;
28026;PMS5003;15344;52.342;-1.290;2023-09-07T02:13:29;18;18;
28026;PMS5003;15344;52.342;-1.290;2023-09-07T02:15:55;26;23;
28026;PMS5003;15344;52.342;-1.290;2023-09-07T02:18:20;26;24;
28026;PMS5003;15344;52.342;-1.290;2023-09-07T02:20:45;26;22;
28026;PMS5003;15344;52.342;-1.290;2023-09-07T02:23:11;27;24;
28026;PMS5003;15344;52.342;-1.290;2023-09-07T02:25:36;24;24;
28026;PMS5003;15344;52.342;-1.290;2023-09-07T02:28:02;19;18;
28026;PMS5003;15344;52.342;-1.290;2023-09-07T02:30:27;33;29;
28026;PMS5003;15344;52.342;-1.290;2023-09-07T02:32:53;28;25;
28026;PMS5003;15344;52.342;-1.290;2023-09-07T02:35:19;24;24;
28026;PMS5003;15344;52.342;-1.290;2023-09-07T02:37:44;26;25;
28026;PMS5003;15344;52.342;-1.290;2023-09-07T02:40:10;24;23;
28026;PMS5003;15344;52.342;-1.290;2023-09-07T02:42:35;27;24;
28026;PMS5003;15344;52.342;-1.290;2023-09-07T02:45:00;24;22;
28026;PMS5003;15344;52.342;-1.290;2023-09-07T02:47:25;29;27;
28026;PMS5003;15344;52.342;-1.290;2023-09-07T02:49:51;24;23;
28026;PMS5003;15344;52.342;-1.290;2023-09-07T02:52:16;24;21;
28026;PMS5003;15344;52.342;-1.290;2023-09-07T02:54:42;27;20;
28026;PMS5003;15344;52.342;-1.290;2023-09-07T02:57:07;23;23;
28026;PMS5003;15344;52.342;-1.290;2023-09-07T02:59:33;27;23;
28026;PMS5003;15344;52.342;-1.290;2023-09-07T03:01:59;28;24;
28026;PMS5003;15344;52.342;-1.290;2023-09-07T03:04:24;33;30;
28026;PMS5003;15344;52.342;-1.290;2023-09-07T03:06:50;26;23;
28026;PMS5003;15344;52.342;-1.290;2023-09-07T03:09:16;24;23;
28026;PMS5003;15344;52.342;-1.290;2023-09-07T03:11:41;24;24;
28026;PMS5003;15344;52.342;-1.290;2023-09-07T03:14:06;24;23;
28026;PMS5003;15344;52.342;-1.290;2023-09-07T03:16:31;38;33;
28026;PMS5003;15344;52.342;-1.290;2023-09-07T03:18:57;30;25;
28026;PMS5003;15344;52.342;-1.290;2023-09-07T03:21:23;28;27;
28026;PMS5003;15344;52.342;-1.290;2023-09-07T03:23:48;33;29;
28026;PMS5003;15344;52.342;-1.290;2023-09-07T03:26:13;25;24;
28026;PMS5003;15344;52.342;-1.290;2023-09-07T03:28:39;35;32;
28026;PMS5003;15344;52.342;-1.290;2023-09-07T03:31:05;32;29;
28026;PMS5003;15344;52.342;-1.290;2023-09-07T03:33:30;32;32;
28026;PMS5003;15344;52.342;-1.290;2023-09-07T03:35:56;35;33;
28026;PMS5003;15344;52.342;-1.290;2023-09-07T03:38:21;31;31;
28026;PMS5003;15344;52.342;-1.290;2023-09-07T03:40:46;31;30;
28026;PMS5003;15344;52.342;-1.290;2023-09-07T03:43:12;28;28;
28026;PMS5003;15344;52.342;-1.290;2023-09-07T03:45:37;35;29;
28026;PMS5003;15344;52.342;-1.290;2023-09-07T03:48:04;30;28;
28026;PMS5003;15344;52.342;-1.290;2023-09-07T03:50:28;26;25;
28026;PMS5003;15344;52.342;-1.290;2023-09-07T03:52:54;31;30;
28026;PMS5003;15344;52.342;-1.290;2023-09-07T03:55:19;33;30;
28026;PMS5003;15344;52.342;-1.290;2023-09-07T03:57:44;26;25;
28026;PMS5003;15344;52.342;-1.290;2023-09-07T04:00:10;27;25;
28026;PMS5003;15344;52.342;-1.290;2023-09-07T04:02:36;28;25;
28026;PMS5003;15344;52.342;-1.290;2023-09-07T04:05:01;29;26;
28026;PMS5003;15344;52.342;-1.290;2023-09-07T04:07:26;28;26;
28026;PMS5003;15344;52.342;-1.290;2023-09-07T04:09:51;27;27;
28026;PMS5003;15344;52.342;-1.290;2023-09-07T04:12:16;27;26;
28026;PMS5003;15344;52.342;-1.290;2023-09-07T04:14:41;30;27;
28026;PMS5003;15344;52.342;-1.290;2023-09-07T04:17:07;30;25;
28026;PMS5003;15344;52.342;-1.290;2023-09-07T04:19:33;24;21;
28026;PMS5003;15344;52.342;-1.290;2023-09-07T04:21:59;30;27;
28026;PMS5003;15344;52.342;-1.290;2023-09-07T04:24:24;25;22;
28026;PMS5003;15344;52.342;-1.290;2023-09-07T04:26:50;22;21;
28026;PMS5003;15344;52.342;-1.290;2023-09-07T04:29:16;27;27;
28026;PMS5003;15344;52.342;-1.290;2023-09-07T04:31:41;30;26;
28026;PMS5003;15344;52.342;-1.290;2023-09-07T04:34:06;28;24;
28026;PMS5003;15344;52.342;-1.290;2023-09-07T04:36:32;27;25;
28026;PMS5003;15344;52.342;-1.290;2023-09-07T04:38:57;28;26;
28026;PMS5003;15344;52.342;-1.290;2023-09-07T04:41:23;31;28;
28026;PMS5003;15344;52.342;-1.290;2023-09-07T04:43:49;23;23;
28026;PMS5003;15344;52.342;-1.290;2023-09-07T04:46:14;26;24;
28026;PMS5003;15344;52.342;-1.290;2023-09-07T04:48:40;26;23;
28026;PMS5003;15344;52.342;-1.290;2023-09-07T04:51:05;29;26;
28026;PMS5003;15344;52.342;-1.290;2023-09-07T04:53:31;33;29;
28026;PMS5003;15344;52.342;-1.290;2023-09-07T04:55:56;32;29;
28026;PMS5003;15344;52.342;-1.290;2023-09-07T04:58:21;25;23;
28026;PMS5003;15344;52.342;-1.290;2023-09-07T05:00:47;28;26;
28026;PMS5003;15344;52.342;-1.290;2023-09-07T05:03:12;30;27;
28026;PMS5003;15344;52.342;-1.290;2023-09-07T05:05:38;24;22;
28026;PMS5003;15344;52.342;-1.290;2023-09-07T05:08:03;29;28;
28026;PMS5003;15344;52.342;-1.290;2023-09-07T05:10:29;24;22;
28026;PMS5003;15344;52.342;-1.290;2023-09-07T05:12:54;26;25;
28026;PMS5003;15344;52.342;-1.290;2023-09-07T05:15:19;29;25;
28026;PMS5003;15344;52.342;-1.290;2023-09-07T05:17:44;26;26;
28026;PMS5003;15344;52.342;-1.290;2023-09-07T05:20:10;28;27;
28026;PMS5003;15344;52.342;-1.290;2023-09-07T05:22:36;30;28;
28026;PMS5003;15344;52.342;-1.290;2023-09-07T05:25:01;34;31;
28026;PMS5003;15344;52.342;-1.290;2023-09-07T05:27:26;26;26;
28026;PMS5003;15344;52.342;-1.290;2023-09-07T05:29:52;31;30;
28026;PMS5003;15344;52.342;-1.290;2023-09-07T05:32:17;33;32;
28026;PMS5003;15344;52.342;-1.290;2023-09-07T05:34:42;33;28;
28026;PMS5003;15344;52.342;-1.290;2023-09-07T05:37:07;35;34;
28026;PMS5003;15344;52.342;-1.290;2023-09-07T05:39:32;36;30;
28026;PMS5003;15344;52.342;-1.290;2023-09-07T05:41:58;29;27;
28026;PMS5003;15344;52.342;-1.290;2023-09-07T05:44:24;36;33;
28026;PMS5003;15344;52.342;-1.290;2023-09-07T05:46:50;32;30;
28026;PMS5003;15344;52.342;-1.290;2023-09-07T05:49:15;34;31;
28026;PMS5003;15344;52.342;-1.290;2023-09-07T05:51:41;37;33;
28026;PMS5003;15344;52.342;-1.290;2023-09-07T05:54:06;32;30;
28026;PMS5003;15344;52.342;-1.290;2023-09-07T05:56:32;41;38;
28026;PMS5003;15344;52.342;-1.290;2023-09-07T05:58:57;35;34;
28026;PMS5003;15344;52.342;-1.290;2023-09-07T06:01:23;41;34;
28026;PMS5003;15344;52.342;-1.290;2023-09-07T06:03:48;33;31;
28026;PMS5003;15344;52.342;-1.290;2023-09-07T06:06:13;38;32;
28026;PMS5003;15344;52.342;-1.290;2023-09-07T06:08:38;40;39;
28026;PMS5003;15344;52.342;-1.290;2023-09-07T06:11:03;37;35;
28026;PMS5003;15344;52.342;-1.290;2023-09-07T06:13:29;36;35;
28026;PMS5003;15344;52.342;-1.290;2023-09-07T06:15:55;34;31;
28026;PMS5003;15344;52.342;-1.290;2023-09-07T06:18:21;35;30;
28026;PMS5003;15344;52.342;-1.290;2023-09-07T06:20:46;32;30;
28026;PMS5003;15344;52.342;-1.290;2023-09-07T06:23:11;31;27;
28026;PMS5003;15344;52.342;-1.290;2023-09-07T06:25:36;34;30;
28026;PMS5003;15344;52.342;-1.290;2023-09-07T06:28:01;35;34;
28026;PMS5003;15344;52.342;-1.290;2023-09-07T06:30:26;37;33;
28026;PMS5003;15344;52.342;-1.290;2023-09-07T06:32:52;30;30;
28026;PMS5003;15344;52.342;-1.290;2023-09-07T06:35:17;34;34;
28026;PMS5003;15344;52.342;-1.290;2023-09-07T06:37:43;30;29;
28026;PMS5003;15344;52.342;-1.290;2023-09-07T06:40:09;38;37;
28026;PMS5003;15344;52.342;-1.290;2023-09-07T06:42:34;36;34;
28026;PMS5003;15344;52.342;-1.290;2023-09-07T06:44:59;42;40;
28026;PMS5003;15344;52.342;-1.290;2023-09-07T06:47:24;35;33;
28026;PMS5003;15344;52.342;-1.290;2023-09-07T06:49:49;37;35;
28026;PMS5003;15344;52.342;-1.290;2023-09-07T06:52:15;36;31;
28026;PMS5003;15344;52.342;-1.290;2023-09-07T06:54:41;41;37;
28026;PMS5003;15344;52.342;-1.290;2023-09-07T06:57:06;36;35;
28026;PMS5003;15344;52.342;-1.290;2023-09-07T06:59:31;34;31;
28026;PMS5003;15344;52.342;-1.290;2023-09-07T07:01:57;32;30;
28026;PMS5003;15344;52.342;-1.290;2023-09-07T07:04:23;41;40;
28026;PMS5003;15344;52.342;-1.290;2023-09-07T07:06:48;37;33;
28026;PMS5003;15344;52.342;-1.290;2023-09-07T07:09:14;31;30;
28026;PMS5003;15344;52.342;-1.290;2023-09-07T07:11:39;29;28;
28026;PMS5003;15344;52.342;-1.290;2023-09-07T07:14:05;32;31;
28026;PMS5003;15344;52.342;-1.290;2023-09-07T07:16:30;37;32;
28026;PMS5003;15344;52.342;-1.290;2023-09-07T07:18:56;40;35;
28026;PMS5003;15344;52.342;-1.290;2023-09-07T07:21:21;32;30;
28026;PMS5003;15344;52.342;-1.290;2023-09-07T07:23:47;30;24;
28026;PMS5003;15344;52.342;-1.290;2023-09-07T07:26:12;36;34;
28026;PMS5003;15344;52.342;-1.290;2023-09-07T07:28:37;33;29;
28026;PMS5003;15344;52.342;-1.290;2023-09-07T07:31:07;34;31;
28026;PMS5003;15344;52.342;-1.290;2023-09-07T07:33:28;36;30;
28026;PMS5003;15344;52.342;-1.290;2023-09-07T07:35:54;31;26;
28026;PMS5003;15344;52.342;-1.290;2023-09-07T07:38:19;26;25;
28026;PMS5003;15344;52.342;-1.290;2023-09-07T07:40:45;26;26;
28026;PMS5003;15344;52.342;-1.290;2023-09-07T07:43:10;31;28;
28026;PMS5003;15344;52.342;-1.290;2023-09-07T07:45:35;30;26;
28026;PMS5003;15344;52.342;-1.290;2023-09-07T07:48:01;23;23;
28026;PMS5003;15344;52.342;-1.290;2023-09-07T07:50:26;27;26;
28026;PMS5003;15344;52.342;-1.290;2023-09-07T07:52:53;26;22;
28026;PMS5003;15344;52.342;-1.290;2023-09-07T07:55:18;29;27;
28026;PMS5003;15344;52.342;-1.290;2023-09-07T07:57:43;28;24;
28026;PMS5003;15344;52.342;-1.290;2023-09-07T08:00:09;22;22;
28026;PMS5003;15344;52.342;-1.290;2023-09-07T08:02:34;28;26;
28026;PMS5003;15344;52.342;-1.290;2023-09-07T08:04:59;23;22;
28026;PMS5003;15344;52.342;-1.290;2023-09-07T08:07:25;26;25;
28026;PMS5003;15344;52.342;-1.290;2023-09-07T08:09:50;17;14;
28026;PMS5003;15344;52.342;-1.290;2023-09-07T08:12:16;22;21;
28026;PMS5003;15344;52.342;-1.290;2023-09-07T08:14:41;22;21;
28026;PMS5003;15344;52.342;-1.290;2023-09-07T08:17:06;20;18;
28026;PMS5003;15344;52.342;-1.290;2023-09-07T08:19:32;20;20;
28026;PMS5003;15344;52.342;-1.290;2023-09-07T08:21:58;26;25;
28026;PMS5003;15344;52.342;-1.290;2023-09-07T08:24:23;22;19;
28026;PMS5003;15344;52.342;-1.290;2023-09-07T08:26:49;18;18;
28026;PMS5003;15344;52.342;-1.290;2023-09-07T08:29:14;22;20;
28026;PMS5003;15344;52.342;-1.290;2023-09-07T08:31:39;23;20;
28026;PMS5003;15344;52.342;-1.290;2023-09-07T08:34:05;18;17;
28026;PMS5003;15344;52.342;-1.290;2023-09-07T08:36:30;19;18;
28026;PMS5003;15344;52.342;-1.290;2023-09-07T08:38:56;15;14;
28026;PMS5003;15344;52.342;-1.290;2023-09-07T08:41:21;17;13;
28026;PMS5003;15344;52.342;-1.290;2023-09-07T08:43:46;15;13;
28026;PMS5003;15344;52.342;-1.290;2023-09-07T08:46:13;14;14;
28026;PMS5003;15344;52.342;-1.290;2023-09-07T08:48:37;14;13;
28026;PMS5003;15344;52.342;-1.290;2023-09-07T08:51:03;16;12;
28026;PMS5003;15344;52.342;-1.290;2023-09-07T08:53:28;15;14;
28026;PMS5003;15344;52.342;-1.290;2023-09-07T08:55:53;13;11;
28026;PMS5003;15344;52.342;-1.290;2023-09-07T08:58:19;17;15;
28026;PMS5003;15344;52.342;-1.290;2023-09-07T09:00:44;16;13;
28026;PMS5003;15344;52.342;-1.290;2023-09-07T09:03:10;16;16;
28026;PMS5003;15344;52.342;-1.290;2023-09-07T09:05:36;14;14;
28026;PMS5003;15344;52.342;-1.290;2023-09-07T09:08:01;19;14;
28026;PMS5003;15344;52.342;-1.290;2023-09-07T09:10:26;17;16;
28026;PMS5003;15344;52.342;-1.290;2023-09-07T09:12:52;16;14;
28026;PMS5003;15344;52.342;-1.290;2023-09-07T09:15:17;16;12;
28026;PMS5003;15344;52.342;-1.290;2023-09-07T09:17:43;12;11;
28026;PMS5003;15344;52.342;-1.290;2023-09-07T09:22:34;16;14;
28026;PMS5003;15344;52.342;-1.290;2023-09-07T09:25:02;15;14;
28026;PMS5003;15344;52.342;-1.290;2023-09-07T09:27:25;14;13;
28026;PMS5003;15344;52.342;-1.290;2023-09-07T09:29:50;13;12;
28026;PMS5003;15344;52.342;-1.290;2023-09-07T09:32:16;12;12;
28026;PMS5003;15344;52.342;-1.290;2023-09-07T09:34:43;13;11;
28026;PMS5003;15344;52.342;-1.290;2023-09-07T09:39:32;14;13;
28026;PMS5003;15344;52.342;-1.290;2023-09-07T09:41:59;12;12;
28026;PMS5003;15344;52.342;-1.290;2023-09-07T09:44:24;15;13;
28026;PMS5003;15344;52.342;-1.290;2023-09-07T09:46:50;17;15;
28026;PMS5003;15344;52.342;-1.290;2023-09-07T09:49:15;17;15;
28026;PMS5003;15344;52.342;-1.290;2023-09-07T09:51:41;16;15;
28026;PMS5003;15344;52.342;-1.290;2023-09-07T09:54:06;13;9;
28026;PMS5003;15344;52.342;-1.290;2023-09-07T09:56:32;14;12;
28026;PMS5003;15344;52.342;-1.290;2023-09-07T09:58:57;11;11;
28026;PMS5003;15344;52.342;-1.290;2023-09-07T10:01:23;12;12;
28026;PMS5003;15344;52.342;-1.290;2023-09-07T10:03:48;11;9;
28026;PMS5003;15344;52.342;-1.290;2023-09-07T10:06:18;11;9;
28026;PMS5003;15344;52.342;-1.290;2023-09-07T10:08:39;9;9;
28026;PMS5003;15344;52.342;-1.290;2023-09-07T10:11:07;13;11;
28026;PMS5003;15344;52.342;-1.290;2023-09-07T10:13:30;14;13;
28026;PMS5003;15344;52.342;-1.290;2023-09-07T10:15:59;11;11;
28026;PMS5003;15344;52.342;-1.290;2023-09-07T10:18:21;16;13;
28026;PMS5003;15344;52.342;-1.290;2023-09-07T10:20:50;10;10;
28026;PMS5003;15344;52.342;-1.290;2023-09-07T10:23:12;12;10;
28026;PMS5003;15344;52.342;-1.290;2023-09-07T10:25:37;10;10;
28026;PMS5003;15344;52.342;-1.290;2023-09-07T10:28:03;10;10;
28026;PMS5003;15344;52.342;-1.290;2023-09-07T10:30:28;11;11;
28026;PMS5003;15344;52.342;-1.290;2023-09-07T10:32:54;15;12;
28026;PMS5003;15344;52.342;-1.290;2023-09-07T10:35:19;10;9;
28026;PMS5003;15344;52.342;-1.290;2023-09-07T10:37:45;13;11;
28026;PMS5003;15344;52.342;-1.290;2023-09-07T10:40:10;14;13;
28026;PMS5003;15344;52.342;-1.290;2023-09-07T10:42:35;12;12;
28026;PMS5003;15344;52.342;-1.290;2023-09-07T10:47:26;17;13;
28026;PMS5003;15344;52.342;-1.290;2023-09-07T10:49:51;13;13;
28026;PMS5003;15344;52.342;-1.290;2023-09-07T10:52:17;19;18;
28026;PMS5003;15344;52.342;-1.290;2023-09-07T10:54:42;13;13;
28026;PMS5003;15344;52.342;-1.290;2023-09-07T10:57:08;14;13;
28026;PMS5003;15344;52.342;-1.290;2023-09-07T10:59:34;13;13;
28026;PMS5003;15344;52.342;-1.290;2023-09-07T11:02:02;14;14;
28026;PMS5003;15344;52.342;-1.290;2023-09-07T11:04:25;14;14;
28026;PMS5003;15344;52.342;-1.290;2023-09-07T11:06:50;19;16;
28026;PMS5003;15344;52.342;-1.290;2023-09-07T11:09:16;18;17;
28026;PMS5003;15344;52.342;-1.290;2023-09-07T11:11:45;19;19;
28026;PMS5003;15344;52.342;-1.290;2023-09-07T11:14:07;17;17;
28026;PMS5003;15344;52.342;-1.290;2023-09-07T11:16:33;18;15;
28026;PMS5003;15344;52.342;-1.290;2023-09-07T11:19:02;20;18;
28026;PMS5003;15344;52.342;-1.290;2023-09-07T11:21:23;15;15;
28026;PMS5003;15344;52.342;-1.290;2023-09-07T11:23:50;19;17;
28026;PMS5003;15344;52.342;-1.290;2023-09-07T11:26:14;23;18;
28026;PMS5003;15344;52.342;-1.290;2023-09-07T11:28:40;14;13;
28026;PMS5003;15344;52.342;-1.290;2023-09-07T11:31:05;12;12;
28026;PMS5003;15344;52.342;-1.290;2023-09-07T11:33:31;17;17;
28026;PMS5003;15344;52.342;-1.290;2023-09-07T11:35:56;20;17;
28026;PMS5003;15344;52.342;-1.290;2023-09-07T11:38:21;17;17;
28026;PMS5003;15344;52.342;-1.290;2023-09-07T11:40:47;15;15;
28026;PMS5003;15344;52.342;-1.290;2023-09-07T11:43:13;12;12;
28026;PMS5003;15344;52.342;-1.290;2023-09-07T11:45:38;16;15;
28026;PMS5003;15344;52.342;-1.290;2023-09-07T11:48:04;17;17;
28026;PMS5003;15344;52.342;-1.290;2023-09-07T11:50:29;18;16;
28026;PMS5003;15344;52.342;-1.290;2023-09-07T11:52:55;11;11;
28026;PMS5003;15344;52.342;-1.290;2023-09-07T11:55:20;17;15;
28026;PMS5003;15344;52.342;-1.290;2023-09-07T11:57:46;15;13;
28026;PMS5003;15344;52.342;-1.290;2023-09-07T12:00:12;17;17;
28026;PMS5003;15344;52.342;-1.290;2023-09-07T12:02:38;19;18;
28026;PMS5003;15344;52.342;-1.290;2023-09-07T12:05:03;13;13;
28026;PMS5003;15344;52.342;-1.290;2023-09-07T12:07:28;22;20;
28026;PMS5003;15344;52.342;-1.290;2023-09-07T12:09:54;16;15;
28026;PMS5003;15344;52.342;-1.290;2023-09-07T12:12:19;18;16;
28026;PMS5003;15344;52.342;-1.290;2023-09-07T12:14:45;15;13;
28026;PMS5003;15344;52.342;-1.290;2023-09-07T12:17:10;15;15;
28026;PMS5003;15344;52.342;-1.290;2023-09-07T12:19:35;16;16;
28026;PMS5003;15344;52.342;-1.290;2023-09-07T12:22:01;16;15;
28026;PMS5003;15344;52.342;-1.290;2023-09-07T12:24:27;15;13;
28026;PMS5003;15344;52.342;-1.290;2023-09-07T12:26:52;16;15;
28026;PMS5003;15344;52.342;-1.290;2023-09-07T12:29:18;15;15;
28026;PMS5003;15344;52.342;-1.290;2023-09-07T12:31:43;12;12;
28026;PMS5003;15344;52.342;-1.290;2023-09-07T12:34:09;13;13;
28026;PMS5003;15344;52.342;-1.290;2023-09-07T12:36:34;12;12;
28026;PMS5003;15344;52.342;-1.290;2023-09-07T12:39:00;15;14;
28026;PMS5003;15344;52.342;-1.290;2023-09-07T12:41:25;14;11;
28026;PMS5003;15344;52.342;-1.290;2023-09-07T12:43:50;12;12;
28026;PMS5003;15344;52.342;-1.290;2023-09-07T12:46:16;10;10;
28026;PMS5003;15344;52.342;-1.290;2023-09-07T12:48:41;16;12;
28026;PMS5003;15344;52.342;-1.290;2023-09-07T12:51:07;17;12;
28026;PMS5003;15344;52.342;-1.290;2023-09-07T12:53:32;11;9;
28026;PMS5003;15344;52.342;-1.290;2023-09-07T12:55:59;11;10;
28026;PMS5003;15344;52.342;-1.290;2023-09-07T12:58:24;18;11;
28026;PMS5003;15344;52.342;-1.290;2023-09-07T13:00:50;12;10;
28026;PMS5003;15344;52.342;-1.290;2023-09-07T13:03:15;10;10;
28026;PMS5003;15344;52.342;-1.290;2023-09-07T13:05:40;12;12;
28026;PMS5003;15344;52.342;-1.290;2023-09-07T13:08:06;11;10;
28026;PMS5003;15344;52.342;-1.290;2023-09-07T13:10:31;11;10;
28026;PMS5003;15344;52.342;-1.290;2023-09-07T13:12:57;8;8;
28026;PMS5003;15344;52.342;-1.290;2023-09-07T13:15:22;12;12;
28026;PMS5003;15344;52.342;-1.290;2023-09-07T13:17:48;9;9;
28026;PMS5003;15344;52.342;-1.290;2023-09-07T13:20:14;13;11;
28026;PMS5003;15344;52.342;-1.290;2023-09-07T13:22:39;11;11;
28026;PMS5003;15344;52.342;-1.290;2023-09-07T13:25:05;14;11;
28026;PMS5003;15344;52.342;-1.290;2023-09-07T13:27:31;12;9;
28026;PMS5003;15344;52.342;-1.290;2023-09-07T13:29:56;12;12;
28026;PMS5003;15344;52.342;-1.290;2023-09-07T13:32:22;10;9;
28026;PMS5003;15344;52.342;-1.290;2023-09-07T13:34:47;10;10;
28026;PMS5003;15344;52.342;-1.290;2023-09-07T13:37:13;9;8;
28026;PMS5003;15344;52.342;-1.290;2023-09-07T13:39:38;10;9;
28026;PMS5003;15344;52.342;-1.290;2023-09-07T13:42:04;9;9;
28026;PMS5003;15344;52.342;-1.290;2023-09-07T13:44:30;12;11;
28026;PMS5003;15344;52.342;-1.290;2023-09-07T13:46:55;9;9;
28026;PMS5003;15344;52.342;-1.290;2023-09-07T13:49:21;11;9;
28026;PMS5003;15344;52.342;-1.290;2023-09-07T13:51:46;14;12;
28026;PMS5003;15344;52.342;-1.290;2023-09-07T13:54:12;11;11;
28026;PMS5003;15344;52.342;-1.290;2023-09-07T13:56:38;11;10;
28026;PMS5003;15344;52.342;-1.290;2023-09-07T13:59:04;7;7;
28026;PMS5003;15344;52.342;-1.290;2023-09-07T14:01:29;9;9;
28026;PMS5003;15344;52.342;-1.290;2023-09-07T14:03:54;11;9;
28026;PMS5003;15344;52.342;-1.290;2023-09-07T14:06:20;12;11;
28026;PMS5003;15344;52.342;-1.290;2023-09-07T14:08:46;11;9;
28026;PMS5003;15344;52.342;-1.290;2023-09-07T14:11:11;8;6;
28026;PMS5003;15344;52.342;-1.290;2023-09-07T14:13:37;9;9;
28026;PMS5003;15344;52.342;-1.290;2023-09-07T14:16:03;11;9;
28026;PMS5003;15344;52.342;-1.290;2023-09-07T14:18:28;9;9;
28026;PMS5003;15344;52.342;-1.290;2023-09-07T14:20:54;7;7;
28026;PMS5003;15344;52.342;-1.290;2023-09-07T14:23:20;11;11;
28026;PMS5003;15344;52.342;-1.290;2023-09-07T14:25:45;11;10;
28026;PMS5003;15344;52.342;-1.290;2023-09-07T14:28:11;10;9;
28026;PMS5003;15344;52.342;-1.290;2023-09-07T14:30:36;12;11;
28026;PMS5003;15344;52.342;-1.290;2023-09-07T14:33:02;9;9;
28026;PMS5003;15344;52.342;-1.290;2023-09-07T14:35:27;10;10;
28026;PMS5003;15344;52.342;-1.290;2023-09-07T14:37:53;9;8;
28026;PMS5003;15344;52.342;-1.290;2023-09-07T14:40:18;11;9;
28026;PMS5003;15344;52.342;-1.290;2023-09-07T14:42:44;9;9;
28026;PMS5003;15344;52.342;-1.290;2023-09-07T14:45:10;9;9;
28026;PMS5003;15344;52.342;-1.290;2023-09-07T14:47:35;9;9;
28026;PMS5003;15344;52.342;-1.290;2023-09-07T14:50:01;9;9;
28026;PMS5003;15344;52.342;-1.290;2023-09-07T14:52:26;9;9;
28026;PMS5003;15344;52.342;-1.290;2023-09-07T14:54:52;10;8;
28026;PMS5003;15344;52.342;-1.290;2023-09-07T14:57:18;8;8;
28026;PMS5003;15344;52.342;-1.290;2023-09-07T14:59:43;11;8;
28026;PMS5003;15344;52.342;-1.290;2023-09-07T15:02:09;9;9;
28026;PMS5003;15344;52.342;-1.290;2023-09-07T15:04:35;11;8;
28026;PMS5003;15344;52.342;-1.290;2023-09-07T15:07:00;11;11;
28026;PMS5003;15344;52.342;-1.290;2023-09-07T15:09:26;7;7;
28026;PMS5003;15344;52.342;-1.290;2023-09-07T15:11:52;9;8;
28026;PMS5003;15344;52.342;-1.290;2023-09-07T15:14:17;9;7;
28026;PMS5003;15344;52.342;-1.290;2023-09-07T15:16:43;11;8;
28026;PMS5003;15344;52.342;-1.290;2023-09-07T15:19:09;9;9;
28026;PMS5003;15344;52.342;-1.290;2023-09-07T15:21:35;9;8;
28026;PMS5003;15344;52.342;-1.290;2023-09-07T15:24:00;8;8;
28026;PMS5003;15344;52.342;-1.290;2023-09-07T15:26:26;9;9;
28026;PMS5003;15344;52.342;-1.290;2023-09-07T15:28:51;10;8;
28026;PMS5003;15344;52.342;-1.290;2023-09-07T15:31:17;7;7;
28026;PMS5003;15344;52.342;-1.290;2023-09-07T15:33:42;9;9;
28026;PMS5003;15344;52.342;-1.290;2023-09-07T15:36:08;6;6;
28026;PMS5003;15344;52.342;-1.290;2023-09-07T15:38:33;8;8;
28026;PMS5003;15344;52.342;-1.290;2023-09-07T15:40:59;9;9;
28026;PMS5003;15344;52.342;-1.290;2023-09-07T15:43:25;10;9;
28026;PMS5003;15344;52.342;-1.290;2023-09-07T15:45:51;9;9;
28026;PMS5003;15344;52.342;-1.290;2023-09-07T15:48:16;8;8;
28026;PMS5003;15344;52.342;-1.290;2023-09-07T15:50:42;9;8;
28026;PMS5003;15344;52.342;-1.290;2023-09-07T15:53:07;8;8;
28026;PMS5003;15344;52.342;-1.290;2023-09-07T15:55:33;11;10;
28026;PMS5003;15344;52.342;-1.290;2023-09-07T15:57:59;9;9;
28026;PMS5003;15344;52.342;-1.290;2023-09-07T16:00:25;9;8;